Предлагаем Вашему вниманию английскую версию страницы: AUTOTAF.ME UNKB - aviation weather forecast Boguchany

AUTOTAF UNKB - авиапрогноз Богучаны

Сегодня рассвет 01:01 UTC, восход солнца 01:47 UTC,
местный полдень 05:42 UTC, заход солнца 09:37 UTC,
наступление темноты 10:23 UTC.

Краткий прогноз UNKB на 9 часов

AUTOTAF.ME UNKB 262000Z 2621/2706 VRB02MPS 0200 FG IC NSC    
  BECMG 2622/2700 0500  
  FM270300 VRB02MPS 1000 BR NSC 
  FM270600 VRB02MPS 9000 HZ NSC

Детальный прогноз UNKB на 24 часа

AUTOTAF.ME UNKB 262000Z 2621/2721 VRB02MPS 0200 FG IC SKC TXM26/2715Z TNM40/2621Z  
  BECMG 2622/2700 0500  
  FM270300 VRB02MPS 1000 BR SKC 
  FM270600 VRB02MPS 9000 HZ FEW240 
  FM270900 VRB02MPS 9999 OVC130 
  BECMG 2710/2712 OVC008  
  FM271500 14003MPS 1500 SN OVC007 
  FM271800 VRB02MPS 9999 -SN OVC006 
  FM272100 VRB02MPS 0800 SN FG IC VV010

Подробный табличный прогноз

Время (UTC) miniAUTOTAF на 3 ч WX FZLVL
M AGL
ICE TURB Т
(°С)
Тd
(°С)
f(%) QNH
(гПа)
WIND/T
18 VRB02MPS 0200 FG IC SKC FG IC SFC -40 -44 67 1046 ...
21 VRB02MPS 0200 FG IC SKC FG IC SFC -40 -44 67 1045 ...
27.01.2021
00 VRB02MPS 0500 FG IC SKC FG IC SFC -40 -44 66 1045 ...
03 VRB02MPS 1000 BR SKC BR SFC -38 -42 67 1043 ...
06 VRB02MPS 9000 HZ FEW240 HZ SFC MOD SFC/FL20 -32 -36 62 1039 ...
09 VRB02MPS 9999 OVC130 SFC MOD SFC/FL30 -29 -33 67 1033 ...
12 12003MPS 9999 OVC008 SFC MOD FL30/FL40 -27 -31 69 1028 ...
15 14003MPS 1500 SN OVC007 SN SFC FBL FL50/FL60 MOD FL30/FL40 -26 -29 72 1022 ...
18 VRB02MPS 9999 -SN OVC006 -SN SFC MOD FL20/FL30 MOD SFC/FL30 -26 -29 76 1018 ...
21 VRB02MPS 0800 SN FG IC VV010 SN FG IC SFC MOD FL20/FL50 -28 -31 75 1016 ...
28.01.2021
00 VRB02MPS 1000 BR OVC011 BR SFC -28 -32 70 1017 ...
03 28003MPS 5000 HZ OVC005 HZ SFC MOD SFC/FL30 -29 -34 62 1018 ...
06 28005G10MPS 9999 OVC006 SFC MOD SFC/FL30 -29 -36 51 1020 ...
09 29004MPS 9999 SKC SFC MOD SFC/FL30 -30 -37 51 1022 ...
12 28003MPS 1000 BR SKC BR SFC -32 -38 55 1026 ...
15 VRB02MPS 1000 BR SKC BR SFC -34 -39 64 1028 ...


Широта 58.38055°, долгота 97.47272°, высота 135 м абс.
Средняя высота рельефа местности 259 м абс.
Прогнозы обновляются четыре раза в сутки: в 02, 08, 14, 20 ч всемирного времени.


Выбрать прогноз по другой модели Богучаны
Онлайн-сводка гроз по Богучаны (для РФ и ближнего зарубежья)
Карта фактических гроз в окрестностях Богучаны
Динамические прогностические карты (ventusky.com)
Прогностическая карта высоты нижней границы облаков по Богучаны (windy.com)
Выбрать другой город

Прогноз предназначен для личного научно-познавательного использования частными лицами
и не предназначен для принятия важных решений и выполнения реальных полётов воздушных судов

При копировании или ином использовании любых материалов данного сайта ссылка на © meteocenter.asia обязательна.

0.67/1.1